Alden Manor, New York
Current Conditions -  °F | °C
As of 5:51 AM on Sunday 23 Nov 2014 (Local Time) from KJFK Reporting Station
Broken Clouds Broken Clouds  
Wind Chill: 38°   Ceiling: 11000
Heat Index: 43°   Visibility: 10mi
Dew Point: 26°   Wind: 8mph
Humidity: 51%   Direction: 240°WSW
Pressure: 30.21"   Gusts: NA
Location:  40.7013°N, 73.7074°W
Report Text: KJFK 231051Z 24007KT 10SM FEW080 BKN110 06/M03 A3021 RMK AO2 SLP230 T00611033 $
Loading
Personal Weather Stations






























Interactive Weather Map New forecast layout! Learn more

10-Day Weather Forecast

Advertisements
Track Severe Weather on mobile